Decoded Metar for CYGR (ILES DE LA MADELEINE in QC, CANADA) (IATA:YGR) | Meteo·Mobile Aviation Weather
aviador You're here:

CYGR Decoded Metar

ILES DE LA MADELEINE in QC, CANADA
Report Time2019-01-21 16:00:00
UTC Time2019-01-21 16:47:56
Flight Rules lifr LIFR
Wind280° at 10 kt
W.Decomp.*RWY 34: 7.5 kt HW 6.6 kt LCW
RWY 25: 6.6 kt HW 7.5 kt RCW
W.Rank280° ranks 5
Current wind is below 280° avg. (13.6)
Visibility1609 m
Phenomena:Mist
Clouds:Overcast 002 Hf
Expected CloudBase > 400 ft AGL from Temp-Dew spread
Ceiling200 ft
Temp-1°C (ISA -16)
Dew Point-2°C (93% RH)
AAT-6.9°C
QNH988 hPa
Density Alt-984 ft
Elevation33 ft
Report Wrong Elevation
Raw Report
CYGR 211600Z 28010KT 1SM BR OVC002 M01/M02 A2919 RMK FG3SF5
SLP888=

Extra information for CYGR:More info

Metar Taf Metar & Taf Last 4 Metars F.Rules Stats Wind Profile Meteogram Temp Stats Airport Information Weather charts Add Link Nearby VenuesMetar ALERT Operation Metar Decoded Social comments